sensor_id;sensor_type;location;lat;lon;timestamp;P1;durP1;ratioP1;P2;durP2;ratioP2
15936;SDS011;9163;48.818;8.976;2023-03-21T00:00:01;3.30;;;3.00;;
15936;SDS011;9163;48.818;8.976;2023-03-21T00:02:30;3.37;;;2.80;;
15936;SDS011;9163;48.818;8.976;2023-03-21T00:04:57;3.00;;;2.70;;
15936;SDS011;9163;48.818;8.976;2023-03-21T00:07:25;4.77;;;2.93;;
15936;SDS011;9163;48.818;8.976;2023-03-21T00:09:53;3.53;;;2.70;;
15936;SDS011;9163;48.818;8.976;2023-03-21T00:12:21;3.60;;;2.60;;
15936;SDS011;9163;48.818;8.976;2023-03-21T00:14:48;5.93;;;2.90;;
15936;SDS011;9163;48.818;8.976;2023-03-21T00:17:18;4.40;;;3.00;;
15936;SDS011;9163;48.818;8.976;2023-03-21T00:19:46;4.30;;;2.90;;
15936;SDS011;9163;48.818;8.976;2023-03-21T00:22:14;3.13;;;2.37;;
15936;SDS011;9163;48.818;8.976;2023-03-21T00:24:41;4.47;;;2.40;;
15936;SDS011;9163;48.818;8.976;2023-03-21T00:27:11;5.07;;;2.67;;
15936;SDS011;9163;48.818;8.976;2023-03-21T00:29:38;6.30;;;2.80;;
15936;SDS011;9163;48.818;8.976;2023-03-21T00:32:05;3.90;;;2.77;;
15936;SDS011;9163;48.818;8.976;2023-03-21T00:34:32;3.50;;;2.80;;
15936;SDS011;9163;48.818;8.976;2023-03-21T00:37:00;3.20;;;2.53;;
15936;SDS011;9163;48.818;8.976;2023-03-21T00:39:27;4.20;;;2.77;;
15936;SDS011;9163;48.818;8.976;2023-03-21T00:41:54;3.77;;;2.43;;
15936;SDS011;9163;48.818;8.976;2023-03-21T00:44:23;4.30;;;2.70;;
15936;SDS011;9163;48.818;8.976;2023-03-21T00:46:50;4.57;;;2.90;;
15936;SDS011;9163;48.818;8.976;2023-03-21T00:49:17;4.23;;;2.63;;
15936;SDS011;9163;48.818;8.976;2023-03-21T00:51:46;4.23;;;3.20;;
15936;SDS011;9163;48.818;8.976;2023-03-21T00:54:16;4.17;;;2.63;;
15936;SDS011;9163;48.818;8.976;2023-03-21T00:56:43;3.77;;;2.70;;
15936;SDS011;9163;48.818;8.976;2023-03-21T00:59:10;3.90;;;2.87;;
15936;SDS011;9163;48.818;8.976;2023-03-21T01:01:39;4.00;;;2.60;;
15936;SDS011;9163;48.818;8.976;2023-03-21T01:04:06;3.63;;;2.40;;
15936;SDS011;9163;48.818;8.976;2023-03-21T01:06:38;5.43;;;2.90;;
15936;SDS011;9163;48.818;8.976;2023-03-21T01:09:06;3.23;;;2.43;;
15936;SDS011;9163;48.818;8.976;2023-03-21T01:11:37;5.30;;;2.60;;
15936;SDS011;9163;48.818;8.976;2023-03-21T01:14:04;4.23;;;2.90;;
15936;SDS011;9163;48.818;8.976;2023-03-21T01:16:32;3.87;;;2.87;;
15936;SDS011;9163;48.818;8.976;2023-03-21T01:19:00;3.93;;;2.90;;
15936;SDS011;9163;48.818;8.976;2023-03-21T01:21:29;3.27;;;2.73;;
15936;SDS011;9163;48.818;8.976;2023-03-21T01:23:56;3.13;;;2.60;;
15936;SDS011;9163;48.818;8.976;2023-03-21T01:26:24;4.20;;;3.10;;
15936;SDS011;9163;48.818;8.976;2023-03-21T01:28:51;4.87;;;3.10;;
15936;SDS011;9163;48.818;8.976;2023-03-21T01:31:18;4.00;;;2.97;;
15936;SDS011;9163;48.818;8.976;2023-03-21T01:33:46;3.47;;;2.80;;
15936;SDS011;9163;48.818;8.976;2023-03-21T01:36:16;3.80;;;2.90;;
15936;SDS011;9163;48.818;8.976;2023-03-21T01:38:46;4.53;;;2.60;;
15936;SDS011;9163;48.818;8.976;2023-03-21T01:41:16;3.73;;;2.70;;
15936;SDS011;9163;48.818;8.976;2023-03-21T01:43:46;4.10;;;2.80;;
15936;SDS011;9163;48.818;8.976;2023-03-21T01:49:06;3.97;;;3.27;;
15936;SDS011;9163;48.818;8.976;2023-03-21T01:51:39;4.53;;;2.90;;
15936;SDS011;9163;48.818;8.976;2023-03-21T01:54:10;3.90;;;3.10;;
15936;SDS011;9163;48.818;8.976;2023-03-21T01:56:40;4.53;;;2.90;;
15936;SDS011;9163;48.818;8.976;2023-03-21T01:59:12;4.13;;;3.13;;
15936;SDS011;9163;48.818;8.976;2023-03-21T02:01:42;3.80;;;2.90;;
15936;SDS011;9163;48.818;8.976;2023-03-21T02:04:11;3.80;;;2.50;;
15936;SDS011;9163;48.818;8.976;2023-03-21T02:06:42;4.30;;;2.73;;
15936;SDS011;9163;48.818;8.976;2023-03-21T02:09:13;4.83;;;2.80;;
15936;SDS011;9163;48.818;8.976;2023-03-21T02:11:44;4.03;;;2.67;;
15936;SDS011;9163;48.818;8.976;2023-03-21T02:14:12;3.27;;;2.40;;
15936;SDS011;9163;48.818;8.976;2023-03-21T02:16:46;5.00;;;2.90;;
15936;SDS011;9163;48.818;8.976;2023-03-21T02:19:24;3.90;;;2.87;;
15936;SDS011;9163;48.818;8.976;2023-03-21T02:22:20;3.17;;;2.83;;
15936;SDS011;9163;48.818;8.976;2023-03-21T02:25:20;4.30;;;2.60;;
15936;SDS011;9163;48.818;8.976;2023-03-21T02:28:03;3.00;;;2.67;;
15936;SDS011;9163;48.818;8.976;2023-03-21T02:30:50;4.20;;;2.97;;
15936;SDS011;9163;48.818;8.976;2023-03-21T02:33:44;5.10;;;3.40;;
15936;SDS011;9163;48.818;8.976;2023-03-21T02:36:56;3.90;;;3.00;;
15936;SDS011;9163;48.818;8.976;2023-03-21T02:39:39;5.23;;;4.20;;
15936;SDS011;9163;48.818;8.976;2023-03-21T02:42:15;5.70;;;4.40;;
15936;SDS011;9163;48.818;8.976;2023-03-21T02:44:46;5.50;;;4.73;;
15936;SDS011;9163;48.818;8.976;2023-03-21T02:47:23;5.57;;;4.10;;
15936;SDS011;9163;48.818;8.976;2023-03-21T02:49:55;6.43;;;4.10;;
15936;SDS011;9163;48.818;8.976;2023-03-21T02:52:29;4.80;;;3.90;;
15936;SDS011;9163;48.818;8.976;2023-03-21T02:54:59;6.67;;;3.90;;
15936;SDS011;9163;48.818;8.976;2023-03-21T02:57:29;5.87;;;4.13;;
15936;SDS011;9163;48.818;8.976;2023-03-21T02:59:57;5.30;;;3.93;;
15936;SDS011;9163;48.818;8.976;2023-03-21T03:02:27;6.20;;;3.80;;
15936;SDS011;9163;48.818;8.976;2023-03-21T03:04:55;5.90;;;4.00;;
15936;SDS011;9163;48.818;8.976;2023-03-21T03:07:30;5.17;;;3.83;;
15936;SDS011;9163;48.818;8.976;2023-03-21T03:10:16;6.20;;;4.07;;
15936;SDS011;9163;48.818;8.976;2023-03-21T03:12:56;6.67;;;4.00;;
15936;SDS011;9163;48.818;8.976;2023-03-21T03:15:31;4.97;;;3.60;;
15936;SDS011;9163;48.818;8.976;2023-03-21T03:18:10;4.10;;;3.70;;
15936;SDS011;9163;48.818;8.976;2023-03-21T03:20:47;5.03;;;3.63;;
15936;SDS011;9163;48.818;8.976;2023-03-21T03:23:28;4.20;;;3.60;;
15936;SDS011;9163;48.818;8.976;2023-03-21T03:26:01;5.03;;;3.63;;
15936;SDS011;9163;48.818;8.976;2023-03-21T03:28:34;5.77;;;3.60;;
15936;SDS011;9163;48.818;8.976;2023-03-21T03:31:04;5.27;;;3.57;;
15936;SDS011;9163;48.818;8.976;2023-03-21T03:33:37;5.70;;;3.90;;
15936;SDS011;9163;48.818;8.976;2023-03-21T03:36:08;5.10;;;4.27;;
15936;SDS011;9163;48.818;8.976;2023-03-21T03:38:40;4.50;;;3.90;;
15936;SDS011;9163;48.818;8.976;2023-03-21T03:41:09;4.27;;;3.63;;
15936;SDS011;9163;48.818;8.976;2023-03-21T03:43:42;5.00;;;3.87;;
15936;SDS011;9163;48.818;8.976;2023-03-21T03:46:13;4.97;;;3.70;;
15936;SDS011;9163;48.818;8.976;2023-03-21T03:48:45;5.70;;;4.07;;
15936;SDS011;9163;48.818;8.976;2023-03-21T03:51:16;4.63;;;3.93;;
15936;SDS011;9163;48.818;8.976;2023-03-21T03:53:51;6.43;;;4.50;;
15936;SDS011;9163;48.818;8.976;2023-03-21T03:56:21;4.70;;;3.93;;
15936;SDS011;9163;48.818;8.976;2023-03-21T03:58:49;4.73;;;3.80;;
15936;SDS011;9163;48.818;8.976;2023-03-21T04:01:17;5.67;;;4.30;;
15936;SDS011;9163;48.818;8.976;2023-03-21T04:03:45;6.57;;;4.20;;
15936;SDS011;9163;48.818;8.976;2023-03-21T04:06:14;5.53;;;4.33;;
15936;SDS011;9163;48.818;8.976;2023-03-21T04:08:42;6.20;;;4.60;;
15936;SDS011;9163;48.818;8.976;2023-03-21T04:11:11;5.83;;;4.30;;
15936;SDS011;9163;48.818;8.976;2023-03-21T04:13:40;4.83;;;3.87;;
15936;SDS011;9163;48.818;8.976;2023-03-21T04:16:07;5.77;;;4.20;;
15936;SDS011;9163;48.818;8.976;2023-03-21T04:18:36;6.00;;;4.37;;
15936;SDS011;9163;48.818;8.976;2023-03-21T04:21:08;5.93;;;4.20;;
15936;SDS011;9163;48.818;8.976;2023-03-21T04:23:37;6.73;;;4.23;;
15936;SDS011;9163;48.818;8.976;2023-03-21T04:26:05;6.33;;;4.27;;
15936;SDS011;9163;48.818;8.976;2023-03-21T04:28:34;5.23;;;4.00;;
15936;SDS011;9163;48.818;8.976;2023-03-21T04:31:03;5.80;;;4.43;;
15936;SDS011;9163;48.818;8.976;2023-03-21T04:33:31;7.00;;;4.10;;
15936;SDS011;9163;48.818;8.976;2023-03-21T04:36:03;6.40;;;4.23;;
15936;SDS011;9163;48.818;8.976;2023-03-21T04:38:33;5.70;;;4.17;;
15936;SDS011;9163;48.818;8.976;2023-03-21T04:41:01;4.13;;;3.30;;
15936;SDS011;9163;48.818;8.976;2023-03-21T04:43:29;3.87;;;3.43;;
15936;SDS011;9163;48.818;8.976;2023-03-21T04:45:58;5.30;;;3.80;;
15936;SDS011;9163;48.818;8.976;2023-03-21T04:48:25;6.80;;;3.80;;
15936;SDS011;9163;48.818;8.976;2023-03-21T04:50:53;4.43;;;3.83;;
15936;SDS011;9163;48.818;8.976;2023-03-21T04:53:20;5.10;;;3.87;;
15936;SDS011;9163;48.818;8.976;2023-03-21T04:55:47;5.17;;;4.20;;
15936;SDS011;9163;48.818;8.976;2023-03-21T04:58:15;11.20;;;4.33;;
15936;SDS011;9163;48.818;8.976;2023-03-21T05:00:44;6.77;;;3.90;;
15936;SDS011;9163;48.818;8.976;2023-03-21T05:03:13;5.17;;;4.07;;
15936;SDS011;9163;48.818;8.976;2023-03-21T05:05:45;5.30;;;3.97;;
15936;SDS011;9163;48.818;8.976;2023-03-21T05:08:13;4.83;;;3.90;;
15936;SDS011;9163;48.818;8.976;2023-03-21T05:10:40;5.60;;;4.30;;
15936;SDS011;9163;48.818;8.976;2023-03-21T05:13:08;4.43;;;3.80;;
15936;SDS011;9163;48.818;8.976;2023-03-21T05:15:35;6.27;;;4.10;;
15936;SDS011;9163;48.818;8.976;2023-03-21T05:18:02;5.93;;;3.73;;
15936;SDS011;9163;48.818;8.976;2023-03-21T05:20:37;5.60;;;4.07;;
15936;SDS011;9163;48.818;8.976;2023-03-21T05:23:07;5.60;;;4.00;;
15936;SDS011;9163;48.818;8.976;2023-03-21T05:25:35;5.57;;;4.20;;
15936;SDS011;9163;48.818;8.976;2023-03-21T05:28:02;6.43;;;3.70;;
15936;SDS011;9163;48.818;8.976;2023-03-21T05:30:30;6.83;;;4.40;;
15936;SDS011;9163;48.818;8.976;2023-03-21T05:32:58;4.90;;;4.20;;
15936;SDS011;9163;48.818;8.976;2023-03-21T05:35:26;6.83;;;4.07;;
15936;SDS011;9163;48.818;8.976;2023-03-21T05:37:55;6.10;;;4.20;;
15936;SDS011;9163;48.818;8.976;2023-03-21T05:40:22;6.43;;;3.97;;
15936;SDS011;9163;48.818;8.976;2023-03-21T05:42:49;4.77;;;3.77;;
15936;SDS011;9163;48.818;8.976;2023-03-21T05:45:16;7.60;;;3.90;;
15936;SDS011;9163;48.818;8.976;2023-03-21T05:47:44;6.40;;;4.40;;
15936;SDS011;9163;48.818;8.976;2023-03-21T05:50:11;6.07;;;3.87;;
15936;SDS011;9163;48.818;8.976;2023-03-21T05:52:39;5.07;;;4.00;;
15936;SDS011;9163;48.818;8.976;2023-03-21T05:55:08;7.93;;;3.90;;
15936;SDS011;9163;48.818;8.976;2023-03-21T05:57:35;6.03;;;4.40;;
15936;SDS011;9163;48.818;8.976;2023-03-21T06:00:05;5.73;;;4.43;;
15936;SDS011;9163;48.818;8.976;2023-03-21T06:02:34;6.27;;;4.43;;
15936;SDS011;9163;48.818;8.976;2023-03-21T06:05:02;7.27;;;4.40;;
15936;SDS011;9163;48.818;8.976;2023-03-21T06:07:29;6.47;;;4.60;;
15936;SDS011;9163;48.818;8.976;2023-03-21T06:09:57;5.77;;;4.90;;
15936;SDS011;9163;48.818;8.976;2023-03-21T06:12:25;8.07;;;4.70;;
15936;SDS011;9163;48.818;8.976;2023-03-21T06:14:52;5.73;;;4.10;;
15936;SDS011;9163;48.818;8.976;2023-03-21T06:17:20;4.87;;;3.80;;
15936;SDS011;9163;48.818;8.976;2023-03-21T06:19:47;16.40;;;5.57;;
15936;SDS011;9163;48.818;8.976;2023-03-21T06:22:15;33.63;;;5.73;;
15936;SDS011;9163;48.818;8.976;2023-03-21T06:24:42;7.73;;;3.93;;
15936;SDS011;9163;48.818;8.976;2023-03-21T06:27:09;6.67;;;3.73;;
15936;SDS011;9163;48.818;8.976;2023-03-21T06:29:38;5.40;;;3.87;;
15936;SDS011;9163;48.818;8.976;2023-03-21T06:32:05;8.83;;;3.80;;
15936;SDS011;9163;48.818;8.976;2023-03-21T06:34:33;5.23;;;3.70;;
15936;SDS011;9163;48.818;8.976;2023-03-21T06:37:00;5.53;;;3.50;;
15936;SDS011;9163;48.818;8.976;2023-03-21T06:39:28;6.50;;;3.90;;
15936;SDS011;9163;48.818;8.976;2023-03-21T06:41:57;35.30;;;6.83;;
15936;SDS011;9163;48.818;8.976;2023-03-21T06:44:25;7.60;;;3.80;;
15936;SDS011;9163;48.818;8.976;2023-03-21T06:46:54;43.50;;;7.80;;
15936;SDS011;9163;48.818;8.976;2023-03-21T06:49:21;9.57;;;4.17;;
15936;SDS011;9163;48.818;8.976;2023-03-21T06:51:48;14.80;;;4.50;;
15936;SDS011;9163;48.818;8.976;2023-03-21T06:54:16;3.97;;;3.13;;
15936;SDS011;9163;48.818;8.976;2023-03-21T06:56:43;7.00;;;3.73;;
15936;SDS011;9163;48.818;8.976;2023-03-21T06:59:11;6.80;;;3.30;;
15936;SDS011;9163;48.818;8.976;2023-03-21T07:01:38;3.57;;;3.10;;
15936;SDS011;9163;48.818;8.976;2023-03-21T07:04:08;7.80;;;3.90;;
15936;SDS011;9163;48.818;8.976;2023-03-21T07:06:36;6.17;;;3.20;;
15936;SDS011;9163;48.818;8.976;2023-03-21T07:09:03;5.83;;;3.20;;
15936;SDS011;9163;48.818;8.976;2023-03-21T07:11:31;5.50;;;3.20;;
15936;SDS011;9163;48.818;8.976;2023-03-21T07:14:00;3.93;;;2.90;;
15936;SDS011;9163;48.818;8.976;2023-03-21T07:16:27;6.17;;;3.23;;
15936;SDS011;9163;48.818;8.976;2023-03-21T07:18:55;5.33;;;2.93;;
15936;SDS011;9163;48.818;8.976;2023-03-21T07:21:23;4.47;;;2.87;;
15936;SDS011;9163;48.818;8.976;2023-03-21T07:23:50;4.77;;;2.60;;
15936;SDS011;9163;48.818;8.976;2023-03-21T07:26:18;4.77;;;2.57;;
15936;SDS011;9163;48.818;8.976;2023-03-21T07:28:45;5.20;;;2.70;;
15936;SDS011;9163;48.818;8.976;2023-03-21T07:31:13;4.67;;;2.67;;
15936;SDS011;9163;48.818;8.976;2023-03-21T07:33:41;5.03;;;2.70;;
15936;SDS011;9163;48.818;8.976;2023-03-21T07:36:09;5.70;;;2.97;;
15936;SDS011;9163;48.818;8.976;2023-03-21T07:38:41;6.10;;;2.70;;
15936;SDS011;9163;48.818;8.976;2023-03-21T07:41:08;6.23;;;2.63;;
15936;SDS011;9163;48.818;8.976;2023-03-21T07:43:35;3.63;;;2.87;;
15936;SDS011;9163;48.818;8.976;2023-03-21T07:46:03;4.43;;;2.70;;
15936;SDS011;9163;48.818;8.976;2023-03-21T07:48:30;3.90;;;2.83;;
15936;SDS011;9163;48.818;8.976;2023-03-21T07:50:58;4.87;;;3.07;;
15936;SDS011;9163;48.818;8.976;2023-03-21T07:53:26;11.27;;;2.97;;
15936;SDS011;9163;48.818;8.976;2023-03-21T07:55:56;4.83;;;2.80;;
15936;SDS011;9163;48.818;8.976;2023-03-21T07:58:24;3.67;;;2.60;;
15936;SDS011;9163;48.818;8.976;2023-03-21T08:00:51;4.17;;;2.70;;
15936;SDS011;9163;48.818;8.976;2023-03-21T08:03:20;12.33;;;3.27;;
15936;SDS011;9163;48.818;8.976;2023-03-21T08:05:48;5.37;;;3.37;;
15936;SDS011;9163;48.818;8.976;2023-03-21T08:08:15;5.37;;;2.73;;
15936;SDS011;9163;48.818;8.976;2023-03-21T08:10:42;5.90;;;2.63;;
15936;SDS011;9163;48.818;8.976;2023-03-21T08:13:11;3.70;;;2.60;;
15936;SDS011;9163;48.818;8.976;2023-03-21T08:15:38;4.70;;;2.47;;
15936;SDS011;9163;48.818;8.976;2023-03-21T08:18:06;4.23;;;2.70;;
15936;SDS011;9163;48.818;8.976;2023-03-21T08:20:33;5.13;;;2.50;;
15936;SDS011;9163;48.818;8.976;2023-03-21T08:23:01;4.57;;;2.30;;
15936;SDS011;9163;48.818;8.976;2023-03-21T08:25:28;3.30;;;2.30;;
15936;SDS011;9163;48.818;8.976;2023-03-21T08:27:56;4.97;;;2.60;;
15936;SDS011;9163;48.818;8.976;2023-03-21T08:30:25;9.37;;;2.70;;
15936;SDS011;9163;48.818;8.976;2023-03-21T08:32:55;3.30;;;2.27;;
15936;SDS011;9163;48.818;8.976;2023-03-21T08:35:23;4.40;;;2.30;;
15936;SDS011;9163;48.818;8.976;2023-03-21T08:37:50;4.17;;;2.43;;
15936;SDS011;9163;48.818;8.976;2023-03-21T08:40:18;3.10;;;2.20;;
15936;SDS011;9163;48.818;8.976;2023-03-21T08:42:45;3.40;;;2.23;;
15936;SDS011;9163;48.818;8.976;2023-03-21T08:45:14;4.43;;;2.20;;
15936;SDS011;9163;48.818;8.976;2023-03-21T08:47:44;6.07;;;2.40;;
15936;SDS011;9163;48.818;8.976;2023-03-21T08:50:12;5.07;;;2.20;;
15936;SDS011;9163;48.818;8.976;2023-03-21T08:52:41;4.20;;;2.30;;
15936;SDS011;9163;48.818;8.976;2023-03-21T08:55:09;5.90;;;2.70;;
15936;SDS011;9163;48.818;8.976;2023-03-21T08:57:37;2.93;;;2.60;;
15936;SDS011;9163;48.818;8.976;2023-03-21T09:00:05;3.37;;;2.33;;
15936;SDS011;9163;48.818;8.976;2023-03-21T09:02:38;3.77;;;2.20;;
15936;SDS011;9163;48.818;8.976;2023-03-21T09:05:08;4.07;;;2.03;;
15936;SDS011;9163;48.818;8.976;2023-03-21T09:07:37;3.10;;;1.70;;
15936;SDS011;9163;48.818;8.976;2023-03-21T09:10:05;7.47;;;1.90;;
15936;SDS011;9163;48.818;8.976;2023-03-21T09:12:34;3.53;;;1.60;;
15936;SDS011;9163;48.818;8.976;2023-03-21T09:15:02;5.30;;;1.80;;
15936;SDS011;9163;48.818;8.976;2023-03-21T09:17:30;7.70;;;2.30;;
15936;SDS011;9163;48.818;8.976;2023-03-21T09:19:58;3.30;;;1.50;;
15936;SDS011;9163;48.818;8.976;2023-03-21T09:22:34;3.80;;;1.70;;
15936;SDS011;9163;48.818;8.976;2023-03-21T09:25:01;2.03;;;1.57;;
15936;SDS011;9163;48.818;8.976;2023-03-21T09:27:31;5.73;;;1.83;;
15936;SDS011;9163;48.818;8.976;2023-03-21T09:29:59;3.53;;;1.47;;
15936;SDS011;9163;48.818;8.976;2023-03-21T09:32:26;3.27;;;1.43;;
15936;SDS011;9163;48.818;8.976;2023-03-21T09:34:54;2.53;;;1.53;;
15936;SDS011;9163;48.818;8.976;2023-03-21T09:37:21;3.20;;;1.20;;
15936;SDS011;9163;48.818;8.976;2023-03-21T09:39:50;1.97;;;1.40;;
15936;SDS011;9163;48.818;8.976;2023-03-21T09:42:19;4.90;;;1.53;;
15936;SDS011;9163;48.818;8.976;2023-03-21T09:44:58;2.47;;;1.40;;
15936;SDS011;9163;48.818;8.976;2023-03-21T09:47:35;1.90;;;1.50;;
15936;SDS011;9163;48.818;8.976;2023-03-21T09:50:11;2.87;;;1.60;;
15936;SDS011;9163;48.818;8.976;2023-03-21T09:52:45;4.20;;;1.60;;
15936;SDS011;9163;48.818;8.976;2023-03-21T09:55:19;2.10;;;1.50;;
15936;SDS011;9163;48.818;8.976;2023-03-21T09:57:54;5.63;;;2.17;;
15936;SDS011;9163;48.818;8.976;2023-03-21T10:00:29;2.90;;;1.57;;
15936;SDS011;9163;48.818;8.976;2023-03-21T10:03:02;2.17;;;1.70;;
15936;SDS011;9163;48.818;8.976;2023-03-21T10:05:34;3.00;;;1.57;;
15936;SDS011;9163;48.818;8.976;2023-03-21T10:08:12;6.33;;;2.20;;
15936;SDS011;9163;48.818;8.976;2023-03-21T10:10:46;2.93;;;2.13;;
15936;SDS011;9163;48.818;8.976;2023-03-21T10:13:16;2.13;;;1.93;;
15936;SDS011;9163;48.818;8.976;2023-03-21T10:15:48;2.90;;;1.70;;
15936;SDS011;9163;48.818;8.976;2023-03-21T10:18:17;2.60;;;2.00;;
15936;SDS011;9163;48.818;8.976;2023-03-21T10:20:48;3.30;;;1.70;;
15936;SDS011;9163;48.818;8.976;2023-03-21T10:23:17;2.30;;;1.80;;
15936;SDS011;9163;48.818;8.976;2023-03-21T10:25:49;3.30;;;1.80;;
15936;SDS011;9163;48.818;8.976;2023-03-21T10:28:19;2.57;;;1.90;;
15936;SDS011;9163;48.818;8.976;2023-03-21T10:30:49;3.07;;;1.60;;
15936;SDS011;9163;48.818;8.976;2023-03-21T10:33:18;2.07;;;1.60;;
15936;SDS011;9163;48.818;8.976;2023-03-21T10:35:50;4.03;;;1.67;;
15936;SDS011;9163;48.818;8.976;2023-03-21T10:38:20;2.30;;;1.50;;
15936;SDS011;9163;48.818;8.976;2023-03-21T10:40:51;2.57;;;1.90;;
15936;SDS011;9163;48.818;8.976;2023-03-21T10:43:29;10.77;;;5.73;;
15936;SDS011;9163;48.818;8.976;2023-03-21T10:46:04;3.27;;;2.50;;
15936;SDS011;9163;48.818;8.976;2023-03-21T10:48:36;3.37;;;1.40;;
15936;SDS011;9163;48.818;8.976;2023-03-21T10:51:05;1.80;;;1.53;;
15936;SDS011;9163;48.818;8.976;2023-03-21T10:53:35;3.47;;;1.80;;
15936;SDS011;9163;48.818;8.976;2023-03-21T10:56:07;1.87;;;1.60;;
15936;SDS011;9163;48.818;8.976;2023-03-21T10:58:37;3.77;;;1.70;;
15936;SDS011;9163;48.818;8.976;2023-03-21T11:01:10;2.73;;;1.77;;
15936;SDS011;9163;48.818;8.976;2023-03-21T11:03:55;4.23;;;1.20;;
15936;SDS011;9163;48.818;8.976;2023-03-21T11:06:26;2.27;;;1.40;;
15936;SDS011;9163;48.818;8.976;2023-03-21T11:08:59;1.40;;;1.30;;
15936;SDS011;9163;48.818;8.976;2023-03-21T11:11:34;5.30;;;1.53;;
15936;SDS011;9163;48.818;8.976;2023-03-21T11:14:04;2.57;;;1.40;;
15936;SDS011;9163;48.818;8.976;2023-03-21T11:16:35;1.70;;;1.30;;
15936;SDS011;9163;48.818;8.976;2023-03-21T11:19:11;1.57;;;1.10;;
15936;SDS011;9163;48.818;8.976;2023-03-21T11:21:40;2.67;;;1.20;;
15936;SDS011;9163;48.818;8.976;2023-03-21T11:24:10;1.90;;;1.40;;
15936;SDS011;9163;48.818;8.976;2023-03-21T11:26:42;3.33;;;1.40;;
15936;SDS011;9163;48.818;8.976;2023-03-21T11:29:24;2.30;;;1.70;;
15936;SDS011;9163;48.818;8.976;2023-03-21T11:31:56;2.50;;;1.20;;
15936;SDS011;9163;48.818;8.976;2023-03-21T11:34:32;2.87;;;1.97;;
15936;SDS011;9163;48.818;8.976;2023-03-21T11:37:04;3.53;;;1.80;;
15936;SDS011;9163;48.818;8.976;2023-03-21T11:39:43;2.47;;;1.70;;
15936;SDS011;9163;48.818;8.976;2023-03-21T11:42:29;2.90;;;2.30;;
15936;SDS011;9163;48.818;8.976;2023-03-21T11:45:01;3.27;;;2.13;;
15936;SDS011;9163;48.818;8.976;2023-03-21T11:47:35;4.33;;;2.20;;
15936;SDS011;9163;48.818;8.976;2023-03-21T11:50:08;5.43;;;2.33;;
15936;SDS011;9163;48.818;8.976;2023-03-21T11:53:04;4.20;;;2.37;;
15936;SDS011;9163;48.818;8.976;2023-03-21T11:55:49;4.97;;;2.37;;
15936;SDS011;9163;48.818;8.976;2023-03-21T11:58:29;3.47;;;2.53;;
15936;SDS011;9163;48.818;8.976;2023-03-21T12:01:04;2.87;;;2.43;;
15936;SDS011;9163;48.818;8.976;2023-03-21T12:03:46;3.07;;;2.10;;
15936;SDS011;9163;48.818;8.976;2023-03-21T12:06:24;2.90;;;2.20;;
15936;SDS011;9163;48.818;8.976;2023-03-21T12:09:01;4.47;;;2.67;;
15936;SDS011;9163;48.818;8.976;2023-03-21T12:11:38;4.60;;;2.50;;
15936;SDS011;9163;48.818;8.976;2023-03-21T12:14:18;3.73;;;2.50;;
15936;SDS011;9163;48.818;8.976;2023-03-21T12:16:57;3.80;;;2.60;;
15936;SDS011;9163;48.818;8.976;2023-03-21T12:19:37;4.07;;;2.10;;
15936;SDS011;9163;48.818;8.976;2023-03-21T12:22:18;2.57;;;1.90;;
15936;SDS011;9163;48.818;8.976;2023-03-21T12:24:52;11.83;;;2.70;;
15936;SDS011;9163;48.818;8.976;2023-03-21T12:27:23;4.80;;;2.53;;
15936;SDS011;9163;48.818;8.976;2023-03-21T12:30:22;9.17;;;2.43;;
15936;SDS011;9163;48.818;8.976;2023-03-21T12:33:08;10.67;;;2.17;;
15936;SDS011;9163;48.818;8.976;2023-03-21T12:35:58;2.73;;;1.60;;
15936;SDS011;9163;48.818;8.976;2023-03-21T12:38:39;4.17;;;2.20;;
15936;SDS011;9163;48.818;8.976;2023-03-21T12:41:16;2.80;;;1.80;;
15936;SDS011;9163;48.818;8.976;2023-03-21T12:43:51;2.70;;;1.90;;
15936;SDS011;9163;48.818;8.976;2023-03-21T12:46:26;2.53;;;1.70;;
15936;SDS011;9163;48.818;8.976;2023-03-21T12:48:59;2.33;;;1.80;;
15936;SDS011;9163;48.818;8.976;2023-03-21T12:51:28;3.70;;;1.80;;
15936;SDS011;9163;48.818;8.976;2023-03-21T12:54:08;2.40;;;1.70;;
15936;SDS011;9163;48.818;8.976;2023-03-21T12:56:46;2.30;;;1.53;;
15936;SDS011;9163;48.818;8.976;2023-03-21T12:59:20;3.43;;;1.70;;
15936;SDS011;9163;48.818;8.976;2023-03-21T13:01:55;2.00;;;1.40;;
15936;SDS011;9163;48.818;8.976;2023-03-21T13:04:43;2.10;;;1.10;;
15936;SDS011;9163;48.818;8.976;2023-03-21T13:07:16;1.73;;;0.90;;
15936;SDS011;9163;48.818;8.976;2023-03-21T13:09:47;3.03;;;1.30;;
15936;SDS011;9163;48.818;8.976;2023-03-21T13:12:20;2.53;;;1.40;;
15936;SDS011;9163;48.818;8.976;2023-03-21T13:15:21;2.73;;;1.30;;
15936;SDS011;9163;48.818;8.976;2023-03-21T13:18:03;1.83;;;1.40;;
15936;SDS011;9163;48.818;8.976;2023-03-21T13:20:41;1.63;;;1.10;;
15936;SDS011;9163;48.818;8.976;2023-03-21T13:23:11;5.07;;;1.70;;
15936;SDS011;9163;48.818;8.976;2023-03-21T13:25:40;3.20;;;1.50;;
15936;SDS011;9163;48.818;8.976;2023-03-21T13:28:15;1.70;;;1.30;;
15936;SDS011;9163;48.818;8.976;2023-03-21T13:30:45;2.00;;;1.23;;
15936;SDS011;9163;48.818;8.976;2023-03-21T13:33:19;3.57;;;1.40;;
15936;SDS011;9163;48.818;8.976;2023-03-21T13:35:53;1.30;;;0.90;;
15936;SDS011;9163;48.818;8.976;2023-03-21T13:38:25;4.53;;;1.23;;
15936;SDS011;9163;48.818;8.976;2023-03-21T13:40:56;5.03;;;1.30;;
15936;SDS011;9163;48.818;8.976;2023-03-21T13:43:38;2.50;;;1.60;;
15936;SDS011;9163;48.818;8.976;2023-03-21T13:46:08;5.70;;;1.90;;
15936;SDS011;9163;48.818;8.976;2023-03-21T13:48:42;3.87;;;1.77;;
15936;SDS011;9163;48.818;8.976;2023-03-21T13:51:37;4.67;;;1.60;;
15936;SDS011;9163;48.818;8.976;2023-03-21T13:54:15;3.40;;;1.70;;
15936;SDS011;9163;48.818;8.976;2023-03-21T13:56:48;2.60;;;1.67;;
15936;SDS011;9163;48.818;8.976;2023-03-21T13:59:16;2.73;;;1.67;;
15936;SDS011;9163;48.818;8.976;2023-03-21T14:01:58;5.43;;;1.60;;
15936;SDS011;9163;48.818;8.976;2023-03-21T14:04:29;3.60;;;1.50;;
15936;SDS011;9163;48.818;8.976;2023-03-21T14:06:58;2.93;;;1.60;;
15936;SDS011;9163;48.818;8.976;2023-03-21T14:09:29;2.67;;;1.43;;
15936;SDS011;9163;48.818;8.976;2023-03-21T14:11:59;3.13;;;1.70;;
15936;SDS011;9163;48.818;8.976;2023-03-21T14:14:29;2.20;;;1.40;;
15936;SDS011;9163;48.818;8.976;2023-03-21T14:16:59;2.53;;;1.90;;
15936;SDS011;9163;48.818;8.976;2023-03-21T14:19:31;2.90;;;1.60;;
15936;SDS011;9163;48.818;8.976;2023-03-21T14:21:58;2.93;;;1.70;;
15936;SDS011;9163;48.818;8.976;2023-03-21T14:24:25;3.40;;;1.60;;
15936;SDS011;9163;48.818;8.976;2023-03-21T14:26:53;5.03;;;1.90;;
15936;SDS011;9163;48.818;8.976;2023-03-21T14:29:22;2.20;;;1.80;;
15936;SDS011;9163;48.818;8.976;2023-03-21T14:31:52;5.53;;;1.80;;
15936;SDS011;9163;48.818;8.976;2023-03-21T14:34:20;4.10;;;2.10;;
15936;SDS011;9163;48.818;8.976;2023-03-21T14:36:50;7.37;;;2.20;;
15936;SDS011;9163;48.818;8.976;2023-03-21T14:39:19;3.30;;;1.77;;
15936;SDS011;9163;48.818;8.976;2023-03-21T14:41:49;3.33;;;1.70;;
15936;SDS011;9163;48.818;8.976;2023-03-21T14:44:21;4.60;;;2.00;;
15936;SDS011;9163;48.818;8.976;2023-03-21T14:46:53;4.37;;;1.80;;
15936;SDS011;9163;48.818;8.976;2023-03-21T14:49:25;13.80;;;2.63;;
15936;SDS011;9163;48.818;8.976;2023-03-21T14:51:56;4.13;;;1.90;;
15936;SDS011;9163;48.818;8.976;2023-03-21T14:54:25;3.10;;;1.90;;
15936;SDS011;9163;48.818;8.976;2023-03-21T14:56:56;7.57;;;2.00;;
15936;SDS011;9163;48.818;8.976;2023-03-21T14:59:26;3.90;;;2.00;;
15936;SDS011;9163;48.818;8.976;2023-03-21T15:01:58;4.03;;;2.00;;
15936;SDS011;9163;48.818;8.976;2023-03-21T15:04:28;4.77;;;2.60;;
15936;SDS011;9163;48.818;8.976;2023-03-21T15:06:59;3.30;;;1.90;;
15936;SDS011;9163;48.818;8.976;2023-03-21T15:09:30;3.00;;;2.00;;
15936;SDS011;9163;48.818;8.976;2023-03-21T15:11:59;3.37;;;2.10;;
15936;SDS011;9163;48.818;8.976;2023-03-21T15:14:28;3.43;;;1.90;;
15936;SDS011;9163;48.818;8.976;2023-03-21T15:16:58;3.67;;;1.90;;
15936;SDS011;9163;48.818;8.976;2023-03-21T15:19:29;8.43;;;3.30;;
15936;SDS011;9163;48.818;8.976;2023-03-21T15:22:08;5.00;;;2.20;;
15936;SDS011;9163;48.818;8.976;2023-03-21T15:24:41;3.10;;;2.00;;
15936;SDS011;9163;48.818;8.976;2023-03-21T15:27:13;6.37;;;2.47;;